Time;durP1;ratioP1;P1;durP2;ratioP2;P2;SDS_P1;SDS_P2;PMS_P1;PMS_P2;Temp;Humidity;BMP_temperature;BMP_pressure;BME280_temperature;BME280_humidity;BME280_pressure;Samples;Min_cycle;Max_cycle;Signal;HPM_P1;HPM_P2
2023/01/03 00:00:48;;;;;;;13.20;6.90;;;;;;;6.16;82.11;99237.02;102131;1301;61548;-25
2023/01/03 00:03:18;;;;;;;11.70;6.30;;;;;;;5.89;82.82;99235.66;102233;1302;76290;-25
2023/01/03 00:05:46;;;;;;;8.60;4.70;;;;;;;5.90;83.67;99237.50;102185;1302;76461;-25
2023/01/03 00:08:14;;;;;;;11.40;5.20;;;;;;;6.43;82.85;99235.05;101968;1301;74936;-25
2023/01/03 00:10:41;;;;;;;9.00;5.30;;;;;;;6.58;81.12;99235.19;102242;1300;62909;-25
2023/01/03 00:13:09;;;;;;;8.50;5.50;;;;;;;6.38;80.39;99236.08;102221;1302;61806;-25
2023/01/03 00:15:37;;;;;;;7.00;5.00;;;;;;;6.04;80.32;99237.75;102097;1301;75348;-25
2023/01/03 00:18:04;;;;;;;8.30;5.50;;;;;;;5.65;80.74;99243.73;102154;1302;75565;-25
2023/01/03 00:20:33;;;;;;;7.30;4.60;;;;;;;5.38;82.34;99239.09;102205;1300;75308;-25
2023/01/03 00:23:01;;;;;;;9.40;4.80;;;;;;;5.73;82.89;99240.17;101953;1305;62675;-26
2023/01/03 00:25:28;;;;;;;8.60;5.60;;;;;;;6.12;82.10;99242.27;102271;1302;61983;-25
2023/01/03 00:27:55;;;;;;;9.20;5.50;;;;;;;6.10;82.00;99236.36;102196;1301;75302;-25
2023/01/03 00:30:22;;;;;;;10.50;6.30;;;;;;;5.90;82.25;99234.05;102038;1300;76146;-25
2023/01/03 00:32:49;;;;;;;9.80;6.30;;;;;;;5.66;82.89;99234.25;102144;1290;75204;-25
2023/01/03 00:35:16;;;;;;;10.00;6.40;;;;;;;5.42;83.44;99237.64;101950;1294;61859;-25
2023/01/03 00:37:43;;;;;;;9.20;4.90;;;;;;;5.25;83.41;99234.14;102106;1302;61774;-25
2023/01/03 00:40:10;;;;;;;8.50;4.90;;;;;;;5.65;82.89;99235.64;102175;1302;75457;-25
2023/01/03 00:45:24;;;;;;;9.80;6.40;;;;;;;5.97;81.31;99227.45;102197;1302;74958;-25
2023/01/03 00:47:52;;;;;;;9.90;6.70;;;;;;;5.74;82.15;99226.55;102179;1295;61670;-25
2023/01/03 00:50:19;;;;;;;9.70;6.20;;;;;;;5.45;83.52;99224.07;102116;1301;62060;-25
2023/01/03 00:52:46;;;;;;;10.00;6.30;;;;;;;5.20;84.98;99216.36;102206;1302;75367;-25
2023/01/03 00:55:13;;;;;;;8.40;5.20;;;;;;;5.06;85.75;99212.30;101922;1293;77135;-25
2023/01/03 00:57:40;;;;;;;9.50;6.10;;;;;;;5.45;85.89;99218.73;102228;1302;75187;-25
2023/01/03 01:00:08;;;;;;;10.50;5.80;;;;;;;5.95;84.50;99219.63;101961;1301;62787;-25
2023/01/03 01:02:35;;;;;;;7.10;5.20;;;;;;;6.10;83.64;99215.69;102066;1300;62576;-26
2023/01/03 01:05:04;;;;;;;10.90;6.10;;;;;;;6.02;83.27;99212.17;102181;1302;76307;-25
2023/01/03 01:07:30;;;;;;;10.90;6.90;;;;;;;5.83;83.12;99210.83;102044;1295;75927;-25
2023/01/03 01:09:57;;;;;;;9.30;5.70;;;;;;;5.58;83.40;99203.86;102072;1300;74849;-25
2023/01/03 01:12:24;;;;;;;8.70;5.20;;;;;;;5.44;84.42;99198.14;102132;1294;63145;-25
2023/01/03 01:14:51;;;;;;;9.50;6.00;;;;;;;5.89;84.22;99198.47;102000;1301;62604;-25
2023/01/03 01:17:18;;;;;;;10.40;6.30;;;;;;;6.16;82.97;99197.60;102029;1306;75264;-25
2023/01/03 01:19:48;;;;;;;13.60;6.20;;;;;;;6.02;82.67;99189.73;102183;1293;77505;-25
2023/01/03 01:22:15;;;;;;;14.70;7.10;;;;;;;5.80;83.20;99185.52;102231;1298;74189;-25
2023/01/03 01:24:43;;;;;;;7.40;5.60;;;;;;;5.50;83.87;99179.31;102235;1302;62518;-25
2023/01/03 01:27:10;;;;;;;10.00;5.00;;;;;;;5.44;84.72;99179.02;101972;1302;61419;-25
2023/01/03 01:29:37;;;;;;;9.70;6.50;;;;;;;5.90;83.93;99176.83;102134;1298;74929;-27
2023/01/03 01:32:04;;;;;;;10.00;6.30;;;;;;;6.05;83.11;99170.30;102170;1302;76715;-25
2023/01/03 01:34:31;;;;;;;10.10;6.00;;;;;;;5.90;83.02;99161.32;102022;1302;74822;-25
2023/01/03 01:36:58;;;;;;;12.00;7.00;;;;;;;5.54;84.15;99164.13;102178;1289;63331;-25
2023/01/03 01:39:26;;;;;;;10.50;5.70;;;;;;;5.33;85.30;99164.30;102150;1302;61883;-25
2023/01/03 01:44:58;;;;;;;9.40;6.20;;;;;;;5.84;83.96;99158.41;102294;1302;76642;-25
2023/01/03 01:47:40;;;;;;;10.10;6.60;;;;;;;5.71;83.93;99160.52;101962;1302;74151;-25
2023/01/03 01:50:11;;;;;;;11.40;6.90;;;;;;;5.51;84.42;99156.77;101942;1298;62736;-25
2023/01/03 01:52:40;;;;;;;11.90;6.80;;;;;;;5.21;85.41;99151.38;101887;1301;61521;-25
2023/01/03 01:55:11;;;;;;;8.10;5.50;;;;;;;5.08;86.52;99149.39;101957;1302;75276;-25
2023/01/03 01:57:39;;;;;;;10.10;6.40;;;;;;;5.60;85.23;99144.31;102243;1300;76476;-25
2023/01/03 02:00:07;;;;;;;10.40;6.40;;;;;;;5.90;83.53;99144.27;102206;1299;75178;-25
2023/01/03 02:02:41;;;;;;;12.10;6.40;;;;;;;5.72;83.53;99145.70;101899;1303;61564;-25
2023/01/03 02:05:08;;;;;;;9.80;6.30;;;;;;;5.47;84.41;99151.31;101961;1301;62890;-25
2023/01/03 02:07:37;;;;;;;11.70;7.00;;;;;;;5.31;85.01;99151.36;102123;1302;75141;-25
2023/01/03 02:10:04;;;;;;;11.80;6.20;;;;;;;5.28;84.84;99149.99;101994;1295;76474;-24
2023/01/03 02:13:05;;;;;;;10.30;6.70;;;;;;;5.61;84.24;99152.21;102192;1302;75319;-25
2023/01/03 02:15:45;;;;;;;9.10;6.40;;;;;;;5.75;83.53;99147.02;102140;1301;62645;-23
2023/01/03 02:18:35;;;;;;;10.40;6.70;;;;;;;5.53;84.27;99148.55;102081;1297;62776;-24
2023/01/03 02:21:47;;;;;;;12.30;7.60;;;;;;;5.25;85.52;99146.90;102179;1300;76338;-25
2023/01/03 02:24:36;;;;;;;6.40;4.20;;;;;;;5.19;86.00;99142.40;102098;1300;75822;-25
2023/01/03 02:27:25;;;;;;;11.50;6.50;;;;;;;5.61;84.45;99135.30;102273;1300;74237;-25
2023/01/03 02:30:13;;;;;;;11.00;7.10;;;;;;;5.85;82.99;99132.85;102171;1302;61819;-25
2023/01/03 02:32:50;;;;;;;13.00;7.00;;;;;;;5.62;82.81;99134.54;102289;1305;61908;-25
2023/01/03 02:35:28;;;;;;;9.60;5.90;;;;;;;5.32;84.07;99140.92;102052;1300;75101;-25
2023/01/03 02:38:11;;;;;;;9.80;6.00;;;;;;;5.19;85.22;99139.31;101881;1300;75720;-25
2023/01/03 02:40:45;;;;;;;11.20;7.10;;;;;;;5.74;84.33;99136.91;101962;1302;76104;-25
2023/01/03 02:43:50;;;;;;;8.40;5.30;;;;;;;5.96;82.63;99131.66;101911;1303;61767;-25
2023/01/03 02:46:39;;;;;;;9.70;6.20;;;;;;;5.64;83.05;99124.09;101992;1302;62929;-25
2023/01/03 02:49:19;;;;;;;9.50;6.60;;;;;;;5.38;84.78;99126.66;102081;1301;76890;-25
2023/01/03 02:51:49;;;;;;;10.60;6.30;;;;;;;5.35;85.36;99123.06;101842;1304;74677;-25
2023/01/03 02:54:20;;;;;;;15.80;6.40;;;;;;;5.85;84.13;99121.14;101870;1303;74072;-25
2023/01/03 02:56:51;;;;;;;11.60;6.60;;;;;;;6.16;82.64;99117.10;102038;1302;61864;-25
2023/01/03 02:59:22;;;;;;;14.30;6.80;;;;;;;6.07;82.11;99114.98;102059;1300;61559;-26
2023/01/03 03:01:49;;;;;;;9.40;5.90;;;;;;;5.93;82.34;99121.20;102137;1306;75371;-25
2023/01/03 03:04:17;;;;;;;7.40;4.90;;;;;;;5.68;83.56;99125.40;102065;1300;76772;-25
2023/01/03 03:06:48;;;;;;;10.20;6.00;;;;;;;6.09;83.22;99128.68;102223;1296;75315;-25
2023/01/03 03:09:15;;;;;;;8.40;5.90;;;;;;;6.53;81.70;99124.40;101960;1301;63182;-25
2023/01/03 03:14:40;;;;;;;9.00;6.00;;;;;;;6.13;82.49;99124.27;101954;1302;76420;-25
2023/01/03 03:17:12;;;;;;;8.10;4.60;;;;;;;5.89;83.66;99125.04;102032;1303;76759;-25
2023/01/03 03:25:45;;;;;;;8.70;5.90;;;;;;;6.43;81.85;99118.87;102017;1308;62610;-25
2023/01/03 03:31:08;;;;;;;9.00;6.10;;;;;;;5.98;82.70;99121.23;101976;1301;75458;-25
2023/01/03 03:33:41;;;;;;;7.50;4.60;;;;;;;5.82;83.62;99120.42;102043;1302;75401;-25
2023/01/03 03:36:42;;;;;;;6.50;4.20;;;;;;;6.25;83.38;99123.02;101986;1302;62667;-25
2023/01/03 03:44:59;;;;;;;8.90;5.60;;;;;;;6.60;81.92;99120.33;102011;1295;61727;-25
2023/01/03 03:45:38;;;;;;;7.20;5.30;;;;;;;6.36;82.18;99122.71;101924;1300;75588;-25
2023/01/03 03:48:16;;;;;;;8.60;5.00;;;;;;;6.18;82.12;99122.74;102062;1302;74238;-25
2023/01/03 03:50:48;;;;;;;8.90;4.20;;;;;;;6.17;82.60;99120.08;101902;1297;64452;-25
2023/01/03 03:53:15;;;;;;;8.10;4.70;;;;;;;6.78;81.78;99117.98;101894;1300;63069;-25
2023/01/03 03:55:49;;;;;;;7.50;4.70;;;;;;;7.07;80.36;99116.46;102018;1301;75990;-25
2023/01/03 03:58:19;;;;;;;7.80;4.50;;;;;;;7.02;80.11;99108.30;101909;1304;75837;-25
2023/01/03 04:00:46;;;;;;;9.60;5.20;;;;;;;6.90;80.48;99108.08;101923;1302;74975;-25
2023/01/03 04:03:14;;;;;;;7.60;4.80;;;;;;;6.73;80.98;99108.79;101891;1303;61790;-25
2023/01/03 04:06:01;;;;;;;7.10;3.70;;;;;;;6.55;82.19;99111.86;102066;1295;61533;-25
2023/01/03 04:08:28;;;;;;;5.80;4.00;;;;;;;7.08;81.33;99109.49;101901;1305;76392;-25
2023/01/03 04:11:04;;;;;;;6.90;4.80;;;;;;;7.46;79.66;99108.71;101861;1294;76631;-25
2023/01/03 04:13:35;;;;;;;8.00;4.50;;;;;;;7.39;79.29;99101.06;102065;1299;74467;-25
2023/01/03 04:16:03;;;;;;;6.40;4.70;;;;;;;7.21;79.77;99103.10;101913;1305;62198;-25
2023/01/03 04:18:30;;;;;;;6.90;5.40;;;;;;;7.00;80.43;99102.09;101940;1304;62877;-25
2023/01/03 04:20:57;;;;;;;5.10;3.40;;;;;;;6.81;81.32;99105.71;102229;1300;76133;-25
2023/01/03 04:23:24;;;;;;;5.10;4.10;;;;;;;7.11;80.89;99107.23;102246;1302;75405;-25
2023/01/03 04:25:51;;;;;;;6.20;4.30;;;;;;;7.45;79.20;99106.52;101909;1294;75295;-25
2023/01/03 04:28:18;;;;;;;7.00;4.70;;;;;;;7.47;78.64;99107.63;102183;1302;62802;-25
2023/01/03 04:30:45;;;;;;;5.50;4.00;;;;;;;7.25;79.10;99109.25;102239;1302;61565;-25
2023/01/03 04:33:12;;;;;;;6.20;4.90;;;;;;;7.02;79.75;99112.32;101959;1309;76382;-26
2023/01/03 04:35:39;;;;;;;8.80;4.90;;;;;;;6.80;80.70;99115.64;102012;1299;75699;-25
2023/01/03 04:38:06;;;;;;;6.20;3.70;;;;;;;6.88;80.99;99116.67;102282;1300;73104;-25
2023/01/03 04:40:34;;;;;;;7.00;4.80;;;;;;;7.40;79.68;99116.14;102134;1301;61947;-25
2023/01/03 04:45:48;;;;;;;10.80;5.00;;;;;;;7.35;78.53;99124.98;101997;1301;74718;-25
2023/01/03 04:48:15;;;;;;;8.70;5.00;;;;;;;7.13;79.11;99121.80;101978;1300;76517;-25
2023/01/03 04:50:53;;;;;;;6.80;5.30;;;;;;;6.88;79.78;99120.09;102327;1297;74643;-25
2023/01/03 04:53:21;;;;;;;9.30;3.70;;;;;;;6.69;80.64;99119.76;102029;1302;63439;-25
2023/01/03 04:55:48;;;;;;;5.10;3.70;;;;;;;7.12;80.39;99120.96;101941;1295;61702;-25
2023/01/03 04:58:15;;;;;;;7.10;4.70;;;;;;;7.38;78.72;99122.04;102070;1302;76388;-25
2023/01/03 05:00:42;;;;;;;6.00;4.50;;;;;;;7.25;78.40;99119.44;101939;1300;76480;-26
2023/01/03 05:03:10;;;;;;;5.90;4.30;;;;;;;7.03;79.16;99124.85;101979;1295;75387;-25
2023/01/03 05:05:37;;;;;;;8.40;5.10;;;;;;;6.79;79.66;99125.66;102242;1302;61583;-25
2023/01/03 05:08:08;;;;;;;5.80;3.90;;;;;;;6.55;80.21;99120.14;102208;1298;62890;-25
2023/01/03 05:10:39;;;;;;;7.70;4.00;;;;;;;6.63;80.72;99125.11;101815;1295;76122;-25
2023/01/03 05:13:07;;;;;;;7.00;4.40;;;;;;;7.03;79.54;99130.73;102051;1302;76471;-25
2023/01/03 05:15:35;;;;;;;7.60;5.10;;;;;;;7.00;79.07;99130.40;102019;1302;75313;-25
2023/01/03 05:18:03;;;;;;;7.80;5.20;;;;;;;6.78;79.75;99135.78;101865;1303;61836;-25
2023/01/03 05:26:22;;;;;;;7.00;4.30;;;;;;;6.36;82.38;99144.23;101922;1302;77192;-25
2023/01/03 05:28:51;;;;;;;5.90;4.70;;;;;;;6.84;80.72;99141.20;102168;1297;73931;-25
2023/01/03 05:31:19;;;;;;;6.00;4.80;;;;;;;6.79;80.13;99136.93;102008;1301;61552;-26
2023/01/03 05:33:47;;;;;;;5.80;4.50;;;;;;;6.57;80.73;99136.75;102010;1302;62959;-25
2023/01/03 05:36:14;;;;;;;15.90;5.90;;;;;;;6.31;81.48;99135.79;102143;1302;76507;-25
2023/01/03 05:38:42;;;;;;;10.60;4.90;;;;;;;6.03;82.79;99140.09;102197;1295;76753;-25
2023/01/03 05:41:09;;;;;;;8.50;4.70;;;;;;;6.09;83.41;99134.70;102261;1302;73924;-25
2023/01/03 05:43:36;;;;;;;9.30;5.20;;;;;;;6.47;81.92;99135.98;101949;1301;61676;-25
2023/01/03 05:46:03;;;;;;;7.90;5.00;;;;;;;6.47;81.52;99134.08;101991;1295;62819;-25
2023/01/03 05:48:30;;;;;;;7.30;5.30;;;;;;;6.29;82.05;99128.98;102233;1300;76366;-25
2023/01/03 05:50:57;;;;;;;8.10;4.60;;;;;;;6.07;83.28;99130.02;102188;1300;75808;-25
2023/01/03 05:53:24;;;;;;;7.80;4.90;;;;;;;5.88;84.18;99129.75;102244;1285;75246;-25
2023/01/03 05:55:51;;;;;;;9.40;4.90;;;;;;;6.13;83.64;99131.69;101954;1302;62636;-25
2023/01/03 05:58:18;;;;;;;7.30;4.90;;;;;;;6.35;82.34;99136.92;102303;1302;61819;-25
2023/01/03 06:00:46;;;;;;;6.90;5.00;;;;;;;6.24;82.31;99138.44;102299;1302;75258;-25
2023/01/03 06:03:13;;;;;;;6.60;4.40;;;;;;;6.07;82.95;99146.56;101971;1300;76388;-25
2023/01/03 06:05:40;;;;;;;7.40;4.50;;;;;;;5.84;83.95;99150.12;102048;1294;75364;-25
2023/01/03 06:08:15;;;;;;;14.60;4.70;;;;;;;5.97;84.04;99156.63;102268;1294;62075;-25
2023/01/03 06:10:42;;;;;;;7.50;5.10;;;;;;;6.23;82.80;99151.80;102043;1301;61744;-25
2023/01/03 06:13:09;;;;;;;6.10;4.50;;;;;;;6.21;82.48;99157.09;102251;1302;76481;-25
2023/01/03 06:15:36;;;;;;;8.10;5.20;;;;;;;6.00;83.38;99158.30;102003;1301;76731;-25
2023/01/03 06:18:03;;;;;;;6.50;4.60;;;;;;;5.83;84.10;99162.24;102247;1302;75251;-25
2023/01/03 06:20:30;;;;;;;7.30;4.70;;;;;;;5.92;84.32;99171.58;102167;1300;63381;-25
2023/01/03 06:22:57;;;;;;;8.80;5.30;;;;;;;6.31;82.75;99172.34;101912;1301;61618;-25
2023/01/03 06:25:24;;;;;;;8.70;5.30;;;;;;;6.37;82.02;99167.31;102002;1300;76410;-25
2023/01/03 06:27:51;;;;;;;7.90;5.10;;;;;;;6.24;82.37;99170.88;102166;1295;74740;-25
2023/01/03 06:30:19;;;;;;;11.40;5.70;;;;;;;6.05;82.95;99172.70;101880;1301;74250;-25
2023/01/03 06:32:46;;;;;;;6.60;3.90;;;;;;;5.89;83.82;99178.11;102075;1285;63916;-25
2023/01/03 06:35:14;;;;;;;8.60;5.20;;;;;;;6.20;83.45;99180.06;102104;1300;61838;-25
2023/01/03 06:37:41;;;;;;;7.60;4.80;;;;;;;6.45;82.03;99188.91;102237;1301;76414;-25
2023/01/03 06:40:08;;;;;;;8.90;5.00;;;;;;;6.40;81.79;99197.11;102303;1301;76908;-25
2023/01/03 06:42:38;;;;;;;10.30;5.70;;;;;;;6.22;82.74;99205.10;102078;1297;75073;-25
2023/01/03 06:53:28;;;;;;;9.70;6.40;;;;;;;6.75;81.32;99224.11;101973;1301;75854;-25
2023/01/03 06:55:55;;;;;;;7.50;5.70;;;;;;;6.69;81.31;99218.80;101935;1302;75399;-25
2023/01/03 06:58:23;;;;;;;8.80;5.40;;;;;;;6.58;81.77;99218.93;102071;1298;61877;-25
2023/01/03 07:00:50;;;;;;;9.50;5.60;;;;;;;6.41;82.69;99236.20;101994;1302;63134;-25
2023/01/03 07:03:17;;;;;;;6.90;4.90;;;;;;;6.40;83.40;99245.05;101917;1300;75081;-25
2023/01/03 07:05:44;;;;;;;6.10;4.50;;;;;;;6.90;81.93;99247.66;102054;1300;76438;-25
2023/01/03 07:08:11;;;;;;;8.00;5.90;;;;;;;7.14;80.49;99246.54;102068;1302;75268;-25
2023/01/03 07:10:40;;;;;;;6.70;4.60;;;;;;;7.14;80.42;99249.64;101947;1301;61825;-25
2023/01/03 07:15:53;;;;;;;8.80;5.90;;;;;;;6.96;81.51;99245.92;102186;1300;76550;-25
2023/01/03 07:18:20;;;;;;;9.00;5.00;;;;;;;6.88;82.02;99251.98;102126;1297;75477;-25
2023/01/03 07:20:47;;;;;;;6.00;4.20;;;;;;;7.05;81.95;99249.02;102103;1302;75325;-25
2023/01/03 07:23:14;;;;;;;8.50;5.60;;;;;;;7.48;80.32;99252.98;102143;1301;61834;-25
2023/01/03 07:25:41;;;;;;;12.00;5.70;;;;;;;7.67;79.55;99251.76;102033;1302;61061;-25
2023/01/03 07:28:12;;;;;;;9.40;5.80;;;;;;;7.62;79.61;99251.40;102260;1292;76374;-25
2023/01/03 07:30:41;;;;;;;6.90;4.70;;;;;;;7.57;79.85;99251.50;101972;1294;76811;-25
2023/01/03 07:33:08;;;;;;;10.30;6.80;;;;;;;7.49;80.32;99253.42;101983;1305;75222;-25
2023/01/03 07:35:36;;;;;;;7.80;5.40;;;;;;;7.36;80.85;99253.39;101881;1295;61846;-25
2023/01/03 07:38:03;;;;;;;12.20;6.60;;;;;;;7.54;80.76;99246.36;102111;1300;61765;-25
2023/01/03 07:40:30;;;;;;;11.70;5.70;;;;;;;7.94;78.99;99254.27;101954;1297;76369;-25
2023/01/03 07:45:43;;;;;;;8.40;5.50;;;;;;;8.23;77.62;99244.97;101963;1294;75606;-25
2023/01/03 07:48:11;;;;;;;8.30;4.10;;;;;;;8.15;77.65;99246.81;101951;1301;62028;-25
2023/01/03 07:50:38;;;;;;;9.30;6.70;;;;;;;8.05;78.20;99246.80;102262;1297;61685;-25
2023/01/03 07:53:06;;;;;;;9.30;6.30;;;;;;;8.02;78.51;99243.73;102294;1292;76455;-25
2023/01/03 07:55:34;;;;;;;7.40;5.90;;;;;;;8.01;78.77;99250.89;102362;1298;76497;-25
2023/01/03 07:58:01;;;;;;;9.40;6.60;;;;;;;7.96;78.99;99257.09;102143;1301;75050;-25
2023/01/03 08:00:28;;;;;;;8.90;5.20;;;;;;;8.06;78.66;99261.10;102257;1294;64620;-25
2023/01/03 08:02:55;;;;;;;8.30;5.20;;;;;;;8.56;77.25;99265.01;102288;1302;62192;-25
2023/01/03 08:05:23;;;;;;;10.30;6.30;;;;;;;8.68;76.28;99268.02;101907;1302;76185;-25
2023/01/03 08:07:50;;;;;;;10.00;6.80;;;;;;;8.50;76.86;99263.52;102199;1300;75811;-25
2023/01/03 08:13:16;;;;;;;15.50;7.80;;;;;;;8.35;77.77;99279.23;102291;1302;62679;-25
2023/01/03 08:15:50;;;;;;;8.30;5.20;;;;;;;8.21;78.13;99276.15;102085;1301;61677;-25
2023/01/03 08:18:20;;;;;;;12.50;7.00;;;;;;;8.28;78.37;99279.70;102033;1301;75340;-25
2023/01/03 08:20:47;;;;;;;14.00;5.90;;;;;;;8.24;78.45;99282.55;101925;1301;76780;-25
2023/01/03 08:23:14;;;;;;;12.30;5.60;;;;;;;8.28;78.48;99279.87;102157;1295;75261;-22
2023/01/03 08:25:41;;;;;;;8.80;5.90;;;;;;;8.23;78.69;99286.25;101942;1300;61598;-23
2023/01/03 08:28:09;;;;;;;12.80;8.10;;;;;;;8.21;78.83;99292.27;101936;1298;61487;-24
2023/01/03 08:30:40;;;;;;;7.50;5.30;;;;;;;8.21;78.38;99271.16;101956;1286;76833;-25
2023/01/03 08:33:09;;;;;;;11.90;7.60;;;;;;;8.25;78.30;99286.29;101908;1304;75741;-25
2023/01/03 08:35:37;;;;;;;12.00;7.90;;;;;;;8.08;78.85;99288.65;101876;1305;75487;-25
2023/01/03 08:38:05;;;;;;;11.90;7.10;;;;;;;8.18;78.71;99283.45;102002;1301;64622;-25
2023/01/03 08:40:34;;;;;;;8.90;6.30;;;;;;;8.61;77.01;99280.59;102100;1303;62610;-25
2023/01/03 08:43:07;;;;;;;10.90;7.40;;;;;;;8.75;76.14;99284.61;102000;1302;76433;-25
2023/01/03 08:45:35;;;;;;;13.30;7.60;;;;;;;8.66;76.27;99285.93;102167;1298;75645;-25
2023/01/03 08:48:02;;;;;;;9.50;6.00;;;;;;;8.66;76.42;99283.17;102288;1294;75242;-25
2023/01/03 08:50:29;;;;;;;10.40;6.40;;;;;;;8.59;76.94;99293.34;101894;1301;64084;-25
2023/01/03 08:52:57;;;;;;;10.50;7.70;;;;;;;8.51;76.95;99293.23;101885;1294;61768;-25
2023/01/03 08:55:24;;;;;;;16.80;7.40;;;;;;;8.54;77.29;99287.99;101944;1294;75037;-25
2023/01/03 08:57:51;;;;;;;9.90;7.00;;;;;;;8.51;77.45;99287.34;101919;1301;76526;-25
2023/01/03 09:00:18;;;;;;;13.90;7.20;;;;;;;8.52;77.51;99288.65;102224;1302;75212;-25
2023/01/03 09:02:45;;;;;;;10.60;6.30;;;;;;;8.48;77.64;99289.41;102130;1301;62905;-25
2023/01/03 09:05:13;;;;;;;6.60;4.60;;;;;;;8.58;77.20;99281.69;102187;1298;62882;-25
2023/01/03 09:07:40;;;;;;;9.60;7.00;;;;;;;8.53;77.36;99288.77;102239;1295;75402;-25
2023/01/03 09:10:07;;;;;;;13.30;7.60;;;;;;;8.55;77.88;99291.58;102132;1294;75797;-26
2023/01/03 09:12:34;;;;;;;10.70;6.30;;;;;;;8.60;77.88;99298.30;102031;1294;74997;-25
2023/01/03 09:15:02;;;;;;;11.50;6.40;;;;;;;8.72;77.79;99293.16;102087;1292;61530;-23
2023/01/03 09:17:29;;;;;;;10.30;6.90;;;;;;;8.79;76.63;99282.63;101928;1301;61948;-25
2023/01/03 09:19:56;;;;;;;11.80;5.80;;;;;;;8.70;77.35;99295.70;102274;1294;76440;-25
2023/01/03 09:22:23;;;;;;;9.70;7.20;;;;;;;8.77;77.21;99292.31;102232;1300;75709;-25
2023/01/03 09:24:50;;;;;;;12.20;7.80;;;;;;;8.79;77.61;99285.73;102220;1302;73984;-25
2023/01/03 09:27:17;;;;;;;10.00;6.90;;;;;;;8.89;77.02;99284.89;102126;1294;61482;-25
2023/01/03 09:29:45;;;;;;;11.40;6.90;;;;;;;9.00;76.44;99290.00;102015;1300;61161;-25
2023/01/03 09:32:12;;;;;;;10.90;7.50;;;;;;;9.20;75.91;99286.17;102027;1301;76502;-25
2023/01/03 09:34:39;;;;;;;11.30;8.60;;;;;;;8.99;75.77;99282.60;102228;1302;75520;-25
2023/01/03 09:37:07;;;;;;;15.00;8.40;;;;;;;8.93;76.65;99279.92;102158;1294;74847;-25
2023/01/03 09:39:35;;;;;;;12.60;7.60;;;;;;;9.14;76.37;99284.13;101965;1302;63249;-25
2023/01/03 09:44:49;;;;;;;11.10;7.30;;;;;;;9.18;76.32;99289.77;102214;1291;75389;-24
2023/01/03 09:47:20;;;;;;;10.70;6.90;;;;;;;9.39;75.80;99287.42;102293;1298;76677;-24
2023/01/03 09:49:47;;;;;;;11.30;7.30;;;;;;;9.39;75.48;99293.45;102083;1295;75299;-24
2023/01/03 10:04:32;;;;;;;10.30;7.80;;;;;;;9.01;76.96;99299.81;102266;1294;74938;-24
2023/01/03 10:07:02;;;;;;;11.30;7.50;;;;;;;9.50;75.42;99301.52;102078;1298;62420;-24
2023/01/03 10:09:39;;;;;;;10.50;7.00;;;;;;;9.49;74.70;99297.40;102051;1294;63134;-24
2023/01/03 10:12:28;;;;;;;14.40;7.40;;;;;;;9.87;74.30;99308.33;101914;1297;76155;-24
2023/01/03 10:15:04;;;;;;;13.80;7.80;;;;;;;9.83;74.09;99308.93;101887;1297;76831;-24
2023/01/03 10:17:54;;;;;;;12.30;8.60;;;;;;;9.61;74.28;99312.63;101927;1302;73952;-24
2023/01/03 10:20:28;;;;;;;11.60;7.60;;;;;;;9.22;75.71;99316.66;101993;1304;62982;-24
2023/01/03 10:22:59;;;;;;;13.60;7.20;;;;;;;9.22;76.06;99311.33;102074;1300;61111;-25
2023/01/03 10:25:27;;;;;;;8.70;5.40;;;;;;;9.17;75.74;99318.44;101953;1295;76143;-24
2023/01/03 10:27:59;;;;;;;16.30;7.10;;;;;;;9.19;76.23;99316.88;102007;1294;75955;-24
2023/01/03 10:30:29;;;;;;;9.30;5.70;;;;;;;9.28;76.53;99323.52;102155;1302;74322;-24
2023/01/03 10:33:18;;;;;;;9.50;6.40;;;;;;;10.00;74.50;99321.80;102244;1301;62884;-24
2023/01/03 10:35:46;;;;;;;9.50;6.20;;;;;;;10.19;72.90;99322.77;102167;1295;62607;-24
2023/01/03 10:38:14;;;;;;;10.80;7.00;;;;;;;10.03;73.04;99317.02;102243;1294;75455;-24
2023/01/03 10:40:43;;;;;;;11.70;6.90;;;;;;;9.67;73.77;99314.14;102307;1295;76141;-24
2023/01/03 10:43:28;;;;;;;13.00;7.20;;;;;;;9.55;74.19;99309.10;102102;1303;75141;-24
2023/01/03 10:46:03;;;;;;;12.30;7.90;;;;;;;9.65;74.62;99322.30;102182;1294;61168;-24
2023/01/03 10:48:48;;;;;;;10.50;7.60;;;;;;;9.21;75.03;99311.04;101937;1301;61207;-24
2023/01/03 10:51:39;;;;;;;11.50;6.10;;;;;;;9.39;75.26;99313.70;102122;1301;75510;-24
2023/01/03 10:54:20;;;;;;;;;;;;;;;9.61;73.92;99311.60;102057;1297;76759;-24
2023/01/03 10:56:48;;;;;;;10.70;7.80;;;;;;;9.57;73.37;99309.50;102161;1296;73959;-24
2023/01/03 10:59:17;;;;;;;12.30;7.20;;;;;;;9.47;73.79;99311.05;102247;1301;61869;-24
2023/01/03 11:02:00;;;;;;;12.90;7.30;;;;;;;9.26;74.87;99318.10;102023;1295;60999;-24
2023/01/03 11:04:28;;;;;;;10.40;6.90;;;;;;;9.37;74.27;99306.48;102087;1301;76388;-24
2023/01/03 11:07:03;;;;;;;9.30;5.40;;;;;;;9.16;74.94;99311.61;102007;1295;76606;-24
2023/01/03 11:09:52;;;;;;;18.70;6.90;;;;;;;9.25;74.75;99306.03;101933;1301;75217;-24
2023/01/03 11:12:27;;;;;;;12.40;7.60;;;;;;;9.69;73.03;99307.54;101890;1297;62701;-24
2023/01/03 11:14:56;;;;;;;7.60;5.20;;;;;;;9.62;72.77;99301.67;101957;1294;62705;-24
2023/01/03 11:17:24;;;;;;;12.80;6.60;;;;;;;9.35;73.80;99306.57;101923;1295;75442;-24
2023/01/03 11:19:51;;;;;;;11.30;7.40;;;;;;;9.30;74.38;99306.24;101935;1301;75541;-25
2023/01/03 11:22:28;;;;;;;11.20;6.20;;;;;;;9.16;75.12;99298.54;102058;1294;73952;-25
2023/01/03 11:25:01;;;;;;;9.80;6.00;;;;;;;9.28;75.39;99315.39;102218;1300;62190;-25
2023/01/03 11:28:06;;;;;;;12.50;6.50;;;;;;;9.71;74.22;99318.86;102190;1301;61773;-25
2023/01/03 11:31:03;;;;;;;12.40;7.10;;;;;;;10.22;72.01;99323.95;102198;1301;76366;-25
2023/01/03 11:33:49;;;;;;;12.40;7.00;;;;;;;10.13;71.73;99327.06;101962;1295;74955;-25
2023/01/03 11:36:36;;;;;;;11.50;6.80;;;;;;;9.95;72.24;99331.87;102170;1302;71254;-25
2023/01/03 11:39:23;;;;;;;15.50;7.90;;;;;;;9.63;73.25;99337.82;102287;1300;61462;-24
2023/01/03 11:42:17;;;;;;;8.80;6.10;;;;;;;9.70;73.76;99341.13;102169;1301;62878;-24
2023/01/03 11:44:54;;;;;;;13.10;7.40;;;;;;;9.52;72.70;99333.39;102092;1304;75347;-25
2023/01/03 11:48:15;;;;;;;12.80;6.40;;;;;;;9.16;73.58;99343.79;101229;1302;1517971;-25
2023/01/03 11:51:12;;;;;;;9.10;5.50;;;;;;;9.47;72.55;99346.13;101580;1307;74962;-25
2023/01/03 11:54:16;;;;;;;9.40;6.20;;;;;;;9.58;72.40;99357.73;101412;1309;62623;-25
2023/01/03 11:56:44;;;;;;;10.20;5.60;;;;;;;9.49;72.80;99345.98;102187;1301;63245;-26
2023/01/03 11:59:30;;;;;;;9.10;6.40;;;;;;;9.21;73.44;99344.16;102200;1293;75263;-25
2023/01/03 12:02:09;;;;;;;13.60;7.20;;;;;;;9.04;74.48;99343.93;101969;1294;76652;-25
2023/01/03 12:04:43;;;;;;;9.40;6.70;;;;;;;8.85;75.01;99344.70;102088;1302;74218;-25
2023/01/03 12:07:14;;;;;;;8.50;5.90;;;;;;;9.26;74.27;99347.92;101802;1305;62665;-26
2023/01/03 12:10:20;;;;;;;11.00;7.10;;;;;;;9.52;73.10;99338.12;102032;1295;61782;-25
2023/01/03 12:13:26;;;;;;;11.00;7.90;;;;;;;9.22;73.80;99341.67;102251;1302;74373;-24
2023/01/03 12:16:02;;;;;;;9.20;6.60;;;;;;;8.98;74.98;99344.17;101772;1305;75677;-24
2023/01/03 12:18:41;;;;;;;9.00;5.90;;;;;;;8.87;75.47;99354.07;101704;1303;75302;-24
2023/01/03 12:21:22;;;;;;;11.50;7.30;;;;;;;8.70;76.18;99348.83;101426;1306;64555;-24
2023/01/03 12:23:57;;;;;;;13.80;7.30;;;;;;;8.99;75.67;99357.64;101343;1310;62638;-24
2023/01/03 12:26:24;;;;;;;12.30;6.80;;;;;;;9.09;74.55;99350.11;101659;1308;75679;-24
2023/01/03 12:29:17;;;;;;;10.30;7.30;;;;;;;9.04;74.85;99354.32;101802;1298;76832;-24
2023/01/03 12:31:52;;;;;;;11.50;7.30;;;;;;;8.80;75.71;99356.84;101747;1308;75413;-24
2023/01/03 12:34:33;;;;;;;14.80;8.40;;;;;;;8.61;76.12;99351.02;101754;1307;62828;-24
2023/01/03 12:37:23;;;;;;;10.10;6.10;;;;;;;8.42;76.97;99349.84;101732;1299;63014;-24
2023/01/03 12:39:59;;;;;;;10.60;5.70;;;;;;;8.81;75.63;99349.86;101789;1305;74375;-24
2023/01/03 12:42:55;;;;;;;12.60;6.80;;;;;;;8.91;74.61;99361.77;101477;1307;75567;-24
2023/01/03 12:45:31;;;;;;;13.00;7.80;;;;;;;8.81;75.33;99366.10;101745;1306;74182;-24
2023/01/03 12:48:01;;;;;;;9.90;6.40;;;;;;;8.56;75.90;99368.16;101767;1297;62878;-24
2023/01/03 12:50:35;;;;;;;11.60;7.60;;;;;;;8.42;76.67;99369.36;101789;1301;62965;-24
2023/01/03 12:53:15;;;;;;;12.80;7.40;;;;;;;8.29;77.15;99367.65;101938;1301;76421;-25